Time;durP1;ratioP1;P1;durP2;ratioP2;P2;SDS_P1;SDS_P2;PMS_P1;PMS_P2;Temp;Humidity;BMP_temperature;BMP_pressure;BME280_temperature;BME280_humidity;BME280_pressure;Samples;Min_cycle;Max_cycle;Signal;HPM_P1;HPM_P2
2022/06/27 00:00:08;;;;;;;23.87;5.40;;;18.50;99.90;;;;;;5019448;28;20203;-76
2022/06/27 00:02:35;;;;;;;22.00;4.90;;;18.60;99.90;;;;;;5006672;28;20167;-75
2022/06/27 00:05:00;;;;;;;46.17;5.57;;;18.50;99.90;;;;;;4989647;28;20476;-76
2022/06/27 00:07:26;;;;;;;10.17;4.80;;;18.40;99.90;;;;;;5007756;28;20418;-75
2022/06/27 00:09:51;;;;;;;12.23;3.50;;;18.30;99.90;;;;;;4989178;28;20189;-75
2022/06/27 00:12:17;;;;;;;7.00;3.00;;;18.30;99.90;;;;;;5007244;28;20544;-75
2022/06/27 00:14:43;;;;;;;7.47;2.80;;;18.40;99.90;;;;;;4987175;28;20326;-75
2022/06/27 00:17:08;;;;;;;5.63;2.37;;;18.50;99.90;;;;;;4989835;28;20277;-75
2022/06/27 00:19:34;;;;;;;4.43;2.47;;;18.50;99.90;;;;;;5006505;28;20217;-76
2022/06/27 00:21:59;;;;;;;5.33;2.70;;;18.60;99.90;;;;;;4999090;28;20166;-75
2022/06/27 00:24:25;;;;;;;8.50;3.13;;;18.70;99.90;;;;;;4988817;28;20672;-76
2022/06/27 00:26:50;;;;;;;17.13;2.90;;;18.80;99.90;;;;;;5005656;28;20183;-76
2022/06/27 00:29:16;;;;;;;12.87;2.40;;;18.80;99.90;;;;;;5027092;28;20430;-75
2022/06/27 00:31:42;;;;;;;24.03;2.87;;;18.80;99.90;;;;;;5016651;28;20667;-75
2022/06/27 00:34:07;;;;;;;3.57;2.43;;;18.90;99.90;;;;;;5007432;28;20221;-76
2022/06/27 00:36:33;;;;;;;6.17;3.00;;;18.90;99.90;;;;;;4989204;28;20198;-76
2022/06/27 00:38:58;;;;;;;7.43;3.10;;;18.90;99.90;;;;;;5007487;28;20234;-76
2022/06/27 00:41:35;;;;;;;7.17;2.50;;;18.90;99.90;;;;;;5006241;28;20252;-75
2022/06/27 00:44:01;;;;;;;8.10;3.00;;;18.90;99.90;;;;;;5004038;28;20277;-76
2022/06/27 00:46:29;;;;;;;6.10;2.50;;;19.60;99.90;;;;;;4990940;28;21035;-76
2022/06/27 00:48:55;;;;;;;4.37;2.97;;;18.90;99.90;;;;;;5028554;28;20730;-76
2022/06/27 00:51:21;;;;;;;6.37;3.50;;;18.90;99.90;;;;;;4992286;28;20862;-76
2022/06/27 00:53:46;;;;;;;6.83;3.30;;;19.00;99.90;;;;;;5010959;28;20516;-76
2022/06/27 00:56:12;;;;;;;6.13;3.30;;;19.00;99.90;;;;;;5006324;28;20204;-75
2022/06/27 00:58:38;;;;;;;7.23;4.07;;;18.90;99.90;;;;;;5017151;28;20252;-76
2022/06/27 01:01:04;;;;;;;9.27;3.83;;;18.80;99.90;;;;;;4997671;28;20545;-75
2022/06/27 01:03:29;;;;;;;9.77;4.40;;;19.00;99.90;;;;;;5011739;28;20170;-76
2022/06/27 01:05:56;;;;;;;7.27;3.40;;;19.00;99.90;;;;;;5010274;28;20189;-76
2022/06/27 01:08:27;;;;;;;7.70;3.50;;;19.00;99.90;;;;;;5011541;28;20229;-75
2022/06/27 01:10:53;;;;;;;12.43;3.40;;;19.00;99.90;;;;;;5009739;28;20761;-76
2022/06/27 01:13:20;;;;;;;8.50;3.30;;;18.90;99.90;;;;;;5010896;28;21032;-76
2022/06/27 01:15:46;;;;;;;5.10;2.80;;;18.80;99.90;;;;;;5009633;28;20440;-76
2022/06/27 01:18:13;;;;;;;13.00;2.80;;;18.70;99.90;;;;;;5011159;28;20468;-76
2022/06/27 01:20:42;;;;;;;9.03;2.80;;;18.60;99.90;;;;;;4991440;28;20321;-76
2022/06/27 01:23:07;;;;;;;4.03;2.40;;;18.50;99.90;;;;;;5008822;28;20429;-76
2022/06/27 01:25:35;;;;;;;4.53;2.30;;;18.60;99.90;;;;;;5009454;28;20453;-76
2022/06/27 01:28:05;;;;;;;2.97;2.37;;;18.70;99.90;;;;;;5017865;28;20385;-76
2022/06/27 01:30:31;;;;;;;5.83;2.30;;;18.70;99.90;;;;;;5029643;28;20515;-76
2022/06/27 01:32:57;;;;;;;3.23;1.70;;;18.70;99.90;;;;;;5009014;28;20552;-76
2022/06/27 01:35:23;;;;;;;1.50;1.10;;;18.70;99.90;;;;;;5010372;28;20688;-76
2022/06/27 01:37:48;;;;;;;2.50;1.30;;;18.60;99.90;;;;;;5008977;28;20190;-76
2022/06/27 01:40:14;;;;;;;2.37;1.20;;;18.50;99.90;;;;;;5010175;28;20867;-76
2022/06/27 01:42:41;;;;;;;1.17;0.83;;;18.50;99.90;;;;;;5007027;28;20183;-75
2022/06/27 01:45:07;;;;;;;2.43;0.90;;;18.40;99.90;;;;;;5002249;28;20429;-76
2022/06/27 01:47:32;;;;;;;1.80;1.07;;;18.40;99.90;;;;;;4992183;28;20457;-76
2022/06/27 01:49:58;;;;;;;1.53;0.80;;;18.40;99.90;;;;;;5010506;28;20459;-76
2022/06/27 01:52:24;;;;;;;4.30;1.03;;;18.40;99.90;;;;;;5008864;28;20182;-76
2022/06/27 01:54:50;;;;;;;1.30;1.00;;;18.40;99.90;;;;;;4991947;28;20568;-76
2022/06/27 01:57:16;;;;;;;1.27;1.10;;;18.30;99.90;;;;;;5010830;28;20236;-76
2022/06/27 01:59:42;;;;;;;4.50;1.80;;;18.20;99.90;;;;;;5010829;28;20761;-76
2022/06/27 02:02:08;;;;;;;2.73;1.30;;;18.20;99.90;;;;;;5017107;28;20547;-75
2022/06/27 02:04:34;;;;;;;6.60;1.40;;;18.20;99.90;;;;;;5010229;28;20441;-75
2022/06/27 02:07:00;;;;;;;2.13;1.57;;;18.20;99.90;;;;;;5008980;28;20186;-75
2022/06/27 02:09:26;;;;;;;4.70;1.80;;;18.20;99.90;;;;;;5008975;28;20441;-75
2022/06/27 02:11:54;;;;;;;2.47;1.60;;;18.30;99.90;;;;;;4985819;28;20187;-75
2022/06/27 02:14:20;;;;;;;2.83;1.50;;;18.30;99.90;;;;;;5009707;28;20193;-75
2022/06/27 02:16:46;;;;;;;2.27;1.57;;;18.30;99.90;;;;;;5006751;28;20433;-76
2022/06/27 02:19:14;;;;;;;2.50;1.70;;;18.30;99.90;;;;;;5010509;28;20629;-76
2022/06/27 02:21:41;;;;;;;4.03;1.47;;;18.20;99.90;;;;;;5008261;28;20178;-76
2022/06/27 02:24:08;;;;;;;4.80;1.20;;;18.30;99.90;;;;;;5009513;28;20421;-76
2022/06/27 02:26:33;;;;;;;2.80;1.27;;;18.20;99.90;;;;;;5003501;28;20700;-76
2022/06/27 02:29:00;;;;;;;2.70;1.27;;;18.00;99.90;;;;;;5029017;28;20515;-76
2022/06/27 02:31:25;;;;;;;2.33;1.30;;;17.90;99.90;;;;;;5021244;28;20185;-76
2022/06/27 02:33:53;;;;;;;4.40;1.50;;;17.80;99.90;;;;;;4990904;28;20465;-76
2022/06/27 02:36:29;;;;;;;1.87;1.20;;;17.80;99.90;;;;;;5008053;28;20326;-76
2022/06/27 02:38:55;;;;;;;3.23;1.40;;;17.90;99.90;;;;;;5009154;28;20425;-76
2022/06/27 02:41:21;;;;;;;2.10;1.40;;;17.90;99.90;;;;;;5007228;28;20449;-76
2022/06/27 02:43:52;;;;;;;3.50;1.90;;;17.90;99.90;;;;;;4985458;28;20450;-75
2022/06/27 02:46:19;;;;;;;3.00;1.70;;;17.90;99.90;;;;;;4989777;28;20968;-75
2022/06/27 02:48:49;;;;;;;2.50;1.60;;;17.90;99.90;;;;;;5009763;28;20429;-75
2022/06/27 02:51:24;;;;;;;1.83;1.60;;;17.90;99.90;;;;;;5007498;28;20409;-75
2022/06/27 02:54:03;;;;;;;2.17;1.83;;;18.00;99.90;;;;;;5009112;28;20432;-75
2022/06/27 02:56:31;;;;;;;3.00;2.03;;;18.00;99.90;;;;;;5006398;28;20433;-76
2022/06/27 02:59:01;;;;;;;3.20;2.10;;;18.10;99.90;;;;;;5012283;28;20472;-75
2022/06/27 03:01:29;;;;;;;3.50;2.20;;;18.00;99.90;;;;;;5010958;28;20720;-75
2022/06/27 03:03:55;;;;;;;3.70;2.30;;;18.00;99.90;;;;;;5008978;28;20448;-76
2022/06/27 03:06:22;;;;;;;3.50;2.20;;;17.90;99.90;;;;;;4989960;28;21311;-76
2022/06/27 03:08:48;;;;;;;2.73;2.20;;;17.90;99.90;;;;;;4989961;28;20425;-77
2022/06/27 03:11:15;;;;;;;3.80;2.30;;;18.00;99.90;;;;;;4989311;28;20526;-76
2022/06/27 03:13:42;;;;;;;5.30;2.60;;;17.90;99.90;;;;;;5007879;28;20232;-75
2022/06/27 03:16:08;;;;;;;4.57;2.40;;;17.90;99.90;;;;;;5006998;28;20426;-76
2022/06/27 03:18:34;;;;;;;3.50;2.50;;;18.00;99.90;;;;;;4990435;28;20448;-76
2022/06/27 03:21:00;;;;;;;3.20;2.90;;;18.00;99.90;;;;;;5008153;28;20468;-76
2022/06/27 03:23:26;;;;;;;4.90;3.27;;;18.20;99.90;;;;;;5007961;28;20448;-75
2022/06/27 03:25:51;;;;;;;6.43;3.23;;;18.00;99.90;;;;;;4988608;28;20269;-76
2022/06/27 03:28:17;;;;;;;5.80;3.43;;;18.00;99.90;;;;;;5019420;28;20193;-75
2022/06/27 03:30:43;;;;;;;4.87;3.27;;;18.10;99.90;;;;;;4995393;28;20202;-75
2022/06/27 03:33:09;;;;;;;4.27;3.10;;;18.10;99.90;;;;;;5006044;28;20700;-75
2022/06/27 03:35:34;;;;;;;6.80;3.30;;;18.10;99.90;;;;;;4990437;28;20493;-75
2022/06/27 03:38:00;;;;;;;3.93;3.37;;;18.10;99.90;;;;;;4983397;28;20183;-75
2022/06/27 03:40:25;;;;;;;5.90;3.30;;;18.20;99.90;;;;;;4990075;28;20191;-75
2022/06/27 03:42:51;;;;;;;6.03;3.57;;;18.20;99.90;;;;;;5005792;28;20264;-76
2022/06/27 03:45:17;;;;;;;6.77;3.80;;;18.20;99.90;;;;;;4989015;28;20194;-76
2022/06/27 03:47:51;;;;;;;5.50;3.40;;;18.10;99.90;;;;;;5006824;28;20760;-76
2022/06/27 03:50:18;;;;;;;11.97;3.40;;;18.10;99.90;;;;;;5007241;28;20177;-76
2022/06/27 03:52:44;;;;;;;5.00;3.07;;;18.10;99.90;;;;;;5006409;28;20452;-76
2022/06/27 03:55:11;;;;;;;5.50;3.47;;;18.10;99.90;;;;;;5007308;28;20441;-75
2022/06/27 03:57:48;;;;;;;4.77;3.40;;;18.20;99.90;;;;;;5015292;28;20192;-75
2022/06/27 04:00:15;;;;;;;3.60;3.03;;;18.10;99.90;;;;;;5016631;28;20988;-76
2022/06/27 04:02:41;;;;;;;5.47;4.30;;;18.10;99.90;;;;;;5013674;28;20768;-76
2022/06/27 04:05:07;;;;;;;5.20;3.37;;;18.00;99.90;;;;;;5007914;28;20433;-75
2022/06/27 04:07:32;;;;;;;6.03;3.80;;;18.10;99.90;;;;;;5006699;28;20281;-76
2022/06/27 04:09:58;;;;;;;6.00;3.73;;;18.10;99.90;;;;;;5007575;28;20946;-75
2022/06/27 04:12:24;;;;;;;4.53;3.97;;;18.10;99.90;;;;;;5006487;28;20186;-76
2022/06/27 04:14:50;;;;;;;6.53;3.77;;;18.10;99.90;;;;;;5006042;28;20493;-76
2022/06/27 04:17:15;;;;;;;7.60;4.20;;;18.10;99.90;;;;;;5007236;28;20556;-76
2022/06/27 04:19:41;;;;;;;4.70;3.87;;;18.10;99.90;;;;;;5008656;28;20549;-76
2022/06/27 04:22:08;;;;;;;9.73;3.60;;;18.20;99.90;;;;;;5009717;28;20659;-76
2022/06/27 04:24:34;;;;;;;5.67;4.03;;;18.30;99.90;;;;;;5010270;28;20561;-76
2022/06/27 04:27:00;;;;;;;7.23;5.00;;;18.30;99.90;;;;;;5011727;28;20855;-76
2022/06/27 04:29:26;;;;;;;10.33;5.57;;;18.40;99.90;;;;;;5012768;28;20436;-76
2022/06/27 04:31:52;;;;;;;8.80;5.73;;;18.30;99.90;;;;;;5020689;28;20193;-76
2022/06/27 04:34:18;;;;;;;7.73;5.23;;;18.30;99.90;;;;;;5009805;28;20546;-76
2022/06/27 04:36:45;;;;;;;6.40;5.60;;;18.40;99.90;;;;;;5010991;28;20233;-76
2022/06/27 04:39:15;;;;;;;6.83;5.47;;;18.50;99.90;;;;;;5010539;28;20202;-75
2022/06/27 04:41:42;;;;;;;8.80;6.53;;;18.60;99.90;;;;;;5009894;28;20437;-75
2022/06/27 04:44:09;;;;;;;7.40;6.37;;;18.70;99.90;;;;;;4993267;28;20516;-75
2022/06/27 04:46:34;;;;;;;12.70;6.90;;;18.80;99.90;;;;;;5009578;28;20440;-76
2022/06/27 04:49:01;;;;;;;13.17;8.70;;;18.80;99.90;;;;;;4985921;28;20513;-76
2022/06/27 04:51:26;;;;;;;20.23;8.70;;;18.80;99.90;;;;;;4991977;28;20250;-75
2022/06/27 04:53:52;;;;;;;18.03;8.80;;;18.80;99.90;;;;;;4991857;28;20429;-75
2022/06/27 04:56:19;;;;;;;10.40;8.17;;;18.90;99.90;;;;;;5009293;28;20186;-75
2022/06/27 04:58:44;;;;;;;12.40;8.50;;;19.10;99.90;;;;;;5018544;28;20170;-75
2022/06/27 05:01:10;;;;;;;10.73;8.23;;;19.10;99.90;;;;;;5008152;28;21105;-75
2022/06/27 05:03:35;;;;;;;12.20;9.43;;;19.20;99.90;;;;;;5011747;28;20167;-75
2022/06/27 05:06:01;;;;;;;13.73;10.00;;;19.20;99.90;;;;;;5009861;28;20175;-75
2022/06/27 05:08:27;;;;;;;13.10;10.00;;;19.10;99.90;;;;;;5011010;28;20680;-74
2022/06/27 05:10:52;;;;;;;12.30;9.37;;;19.20;99.90;;;;;;5009137;28;20273;-75
2022/06/27 05:13:18;;;;;;;11.60;9.30;;;19.30;99.90;;;;;;5010505;28;20613;-75
2022/06/27 05:15:43;;;;;;;12.23;9.40;;;19.40;99.90;;;;;;5008730;28;20218;-76
2022/06/27 05:18:09;;;;;;;9.10;7.80;;;19.50;99.90;;;;;;5009991;28;20839;-75
2022/06/27 05:20:34;;;;;;;14.07;9.80;;;19.70;99.90;;;;;;5007986;28;20365;-76
2022/06/27 05:23:00;;;;;;;15.90;9.80;;;19.70;99.90;;;;;;4987889;28;20260;-76
2022/06/27 05:25:26;;;;;;;11.97;9.20;;;19.70;99.90;;;;;;5009061;28;20257;-75
2022/06/27 05:27:52;;;;;;;10.40;8.53;;;19.70;99.90;;;;;;5016575;28;20272;-76
2022/06/27 05:30:17;;;;;;;13.50;9.97;;;19.80;99.90;;;;;;5014918;28;20556;-76
2022/06/27 05:32:43;;;;;;;14.67;9.10;;;19.80;99.90;;;;;;5008884;28;20181;-75
2022/06/27 05:35:10;;;;;;;11.77;9.40;;;19.80;99.90;;;;;;4987047;28;20723;-76
2022/06/27 05:37:38;;;;;;;17.10;9.70;;;19.70;99.90;;;;;;5009034;28;20516;-76
2022/06/27 05:40:07;;;;;;;13.07;8.43;;;19.70;99.90;;;;;;5008657;28;20473;-76
2022/06/27 05:42:33;;;;;;;14.07;8.40;;;19.60;99.90;;;;;;5009324;28;20452;-75
2022/06/27 05:44:59;;;;;;;11.67;8.07;;;19.50;99.90;;;;;;5007584;28;20787;-75
2022/06/27 05:47:25;;;;;;;9.17;7.10;;;19.60;99.90;;;;;;5009379;28;20444;-76
2022/06/27 05:49:51;;;;;;;9.75;7.80;;;19.60;99.90;;;;;;5009122;28;20422;-75
2022/06/27 05:52:17;;;;;;;9.70;7.20;;;19.60;99.90;;;;;;5009396;28;20170;-75
2022/06/27 05:54:44;;;;;;;8.40;7.03;;;19.60;99.90;;;;;;4990319;28;20988;-75
2022/06/27 05:57:11;;;;;;;10.40;7.67;;;19.60;99.90;;;;;;5004836;28;20178;-75
2022/06/27 05:59:36;;;;;;;16.07;7.20;;;19.50;99.90;;;;;;5011909;28;21095;-75
2022/06/27 06:02:03;;;;;;;8.13;7.10;;;19.40;99.90;;;;;;5008667;28;20528;-75
2022/06/27 06:04:29;;;;;;;9.37;7.20;;;19.40;99.90;;;;;;5008065;28;20222;-75
2022/06/27 06:06:55;;;;;;;8.40;6.50;;;19.40;99.90;;;;;;4989728;28;20441;-75
2022/06/27 06:09:20;;;;;;;9.77;6.70;;;19.40;99.90;;;;;;5008353;28;20448;-75
2022/06/27 06:11:48;;;;;;;9.70;7.43;;;19.40;99.90;;;;;;5007936;28;20174;-78
2022/06/27 06:14:16;;;;;;;11.23;7.30;;;19.40;99.90;;;;;;5008600;28;20544;-76
2022/06/27 06:16:42;;;;;;;10.93;7.93;;;19.60;99.90;;;;;;5006768;28;20557;-78
2022/06/27 06:19:09;;;;;;;9.33;7.00;;;19.70;99.90;;;;;;4986653;28;20507;-77
2022/06/27 06:21:34;;;;;;;11.50;8.30;;;19.80;99.90;;;;;;5009378;28;20441;-77
2022/06/27 06:24:01;;;;;;;9.00;7.93;;;19.70;99.90;;;;;;5007758;28;20488;-79
2022/06/27 06:26:27;;;;;;;11.93;7.80;;;19.50;99.90;;;;;;5006233;28;20213;-77
2022/06/27 06:28:53;;;;;;;38.30;8.40;;;19.60;99.90;;;;;;5011481;28;20908;-75
2022/06/27 06:31:22;;;;;;;10.13;6.73;;;19.60;99.90;;;;;;5014233;28;20182;-75
2022/06/27 06:33:53;;;;;;;7.00;6.00;;;19.70;99.90;;;;;;5009105;28;20963;-76
2022/06/27 06:36:21;;;;;;;8.57;7.00;;;19.80;99.90;;;;;;5010177;28;20818;-76
2022/06/27 06:38:47;;;;;;;12.53;7.73;;;19.70;99.90;;;;;;4992764;28;20876;-76
2022/06/27 06:41:14;;;;;;;10.00;8.10;;;19.60;99.90;;;;;;5009508;28;20531;-76
2022/06/27 06:43:40;;;;;;;10.27;7.80;;;19.70;99.90;;;;;;5008802;28;20995;-75
2022/06/27 06:46:06;;;;;;;16.93;8.70;;;19.70;99.90;;;;;;4996741;28;20479;-76
2022/06/27 06:48:32;;;;;;;9.70;8.70;;;19.80;99.90;;;;;;4997893;28;20815;-76
2022/06/27 06:50:58;;;;;;;10.53;7.90;;;19.90;99.90;;;;;;5007094;28;20173;-76
2022/06/27 06:53:23;;;;;;;12.13;8.27;;;20.00;99.90;;;;;;5011722;28;20244;-76
2022/06/27 06:55:50;;;;;;;13.67;9.63;;;20.00;99.90;;;;;;5010195;28;20221;-76
2022/06/27 06:58:17;;;;;;;13.87;10.27;;;19.90;99.90;;;;;;5011706;28;20186;-75
2022/06/27 07:00:43;;;;;;;15.73;11.13;;;19.80;99.90;;;;;;5020969;28;20507;-76
2022/06/27 07:03:10;;;;;;;16.03;11.37;;;19.70;99.90;;;;;;5016044;28;20960;-75
2022/06/27 07:05:37;;;;;;;16.90;12.90;;;19.60;99.90;;;;;;5022986;28;20447;-75
2022/06/27 07:08:04;;;;;;;22.63;12.63;;;19.60;99.90;;;;;;5009224;28;20513;-76
2022/06/27 07:10:29;;;;;;;15.83;12.53;;;19.60;99.90;;;;;;5007483;28;20469;-75
2022/06/27 07:12:55;;;;;;;28.07;12.50;;;19.80;99.90;;;;;;5008896;28;20695;-76
2022/06/27 07:15:21;;;;;;;21.93;12.90;;;19.60;99.90;;;;;;4992176;28;20563;-76
2022/06/27 07:17:49;;;;;;;16.77;13.60;;;19.70;99.90;;;;;;5019074;28;20255;-76
2022/06/27 07:20:19;;;;;;;17.33;12.73;;;19.70;99.90;;;;;;4994044;28;20730;-76
2022/06/27 07:22:49;;;;;;;20.40;12.80;;;19.70;99.90;;;;;;5011066;28;20447;-76
2022/06/27 07:25:15;;;;;;;14.17;11.47;;;19.80;99.90;;;;;;4995294;28;20452;-76
2022/06/27 07:27:42;;;;;;;14.00;11.60;;;19.90;99.90;;;;;;5010164;28;20983;-76
2022/06/27 07:30:12;;;;;;;16.10;12.03;;;19.90;99.90;;;;;;4996767;28;20485;-75
2022/06/27 07:32:39;;;;;;;17.30;12.30;;;19.90;99.90;;;;;;5009081;28;20445;-76
2022/06/27 07:35:09;;;;;;;16.87;13.30;;;20.10;99.90;;;;;;5009671;28;20958;-76
2022/06/27 07:37:36;;;;;;;16.67;12.37;;;20.20;99.90;;;;;;5015398;28;20532;-76
2022/06/27 07:40:03;;;;;;;19.37;11.70;;;20.30;99.90;;;;;;5008720;28;20818;-76
2022/06/27 07:42:30;;;;;;;16.80;11.30;;;20.30;99.90;;;;;;5009670;28;20797;-76
2022/06/27 07:44:56;;;;;;;13.40;10.93;;;20.10;99.90;;;;;;5017528;28;20482;-76
2022/06/27 07:47:21;;;;;;;12.97;10.50;;;20.10;99.90;;;;;;5012017;28;20441;-76
2022/06/27 07:49:47;;;;;;;22.17;11.13;;;20.10;99.90;;;;;;5023166;28;21017;-76
2022/06/27 07:52:13;;;;;;;12.17;10.33;;;21.00;99.90;;;;;;4992450;28;20190;-76
2022/06/27 07:54:39;;;;;;;13.60;10.60;;;19.90;99.90;;;;;;5020798;28;20288;-76
2022/06/27 07:57:05;;;;;;;12.40;11.10;;;19.90;99.90;;;;;;5012478;28;20336;-76
2022/06/27 07:59:32;;;;;;;11.43;10.17;;;19.80;99.90;;;;;;5005208;28;20567;-76
2022/06/27 08:01:57;;;;;;;11.60;10.40;;;19.90;99.90;;;;;;5011047;28;20421;-75
2022/06/27 08:04:23;;;;;;;11.87;10.67;;;20.00;99.90;;;;;;5007574;28;21020;-76
2022/06/27 08:06:50;;;;;;;11.90;10.10;;;20.00;99.90;;;;;;5007319;28;20208;-76
2022/06/27 08:09:21;;;;;;;12.53;10.70;;;20.10;99.90;;;;;;5007655;28;20436;-76
2022/06/27 08:11:47;;;;;;;14.87;10.93;;;20.20;99.90;;;;;;4999051;28;20970;-76
2022/06/27 08:14:17;;;;;;;14.37;11.10;;;20.10;99.90;;;;;;5009947;28;20452;-76
2022/06/27 08:16:43;;;;;;;16.87;11.50;;;20.30;99.90;;;;;;5004923;28;20183;-76
2022/06/27 08:19:10;;;;;;;13.77;11.83;;;20.30;99.90;;;;;;5016400;28;20504;-76
2022/06/27 08:21:37;;;;;;;11.43;10.23;;;20.30;99.90;;;;;;5016548;28;20434;-76
2022/06/27 08:24:07;;;;;;;11.47;9.10;;;20.20;99.90;;;;;;5012743;28;20429;-76
2022/06/27 08:26:34;;;;;;;14.40;9.27;;;20.30;99.90;;;;;;4988800;28;20460;-76
2022/06/27 08:29:02;;;;;;;9.90;8.90;;;20.10;99.90;;;;;;4988071;28;20432;-76
2022/06/27 08:31:29;;;;;;;12.40;8.40;;;20.20;99.90;;;;;;5011333;28;20512;-76
2022/06/27 08:33:58;;;;;;;12.43;9.23;;;20.10;99.90;;;;;;4991417;28;20457;-76
2022/06/27 08:36:30;;;;;;;15.40;10.40;;;20.10;99.90;;;;;;5006429;28;20461;-76
2022/06/27 08:38:56;;;;;;;13.27;9.20;;;20.20;99.90;;;;;;4990197;28;20413;-76
2022/06/27 08:41:23;;;;;;;14.30;9.67;;;20.10;99.90;;;;;;4988698;28;20559;-76
2022/06/27 08:43:52;;;;;;;14.40;11.10;;;20.10;99.90;;;;;;4993449;28;20449;-76
2022/06/27 08:46:18;;;;;;;12.30;10.10;;;20.10;99.90;;;;;;4989883;28;20433;-76
2022/06/27 08:48:47;;;;;;;11.40;10.07;;;20.10;99.90;;;;;;4996688;28;20421;-76
2022/06/27 08:51:13;;;;;;;13.40;10.30;;;20.10;99.90;;;;;;5009441;28;20444;-76
2022/06/27 08:53:40;;;;;;;10.70;9.60;;;20.30;99.90;;;;;;5012235;28;20438;-76
2022/06/27 08:56:09;;;;;;;13.23;10.33;;;20.20;99.90;;;;;;4991287;28;20477;-76
2022/06/27 08:58:35;;;;;;;22.63;10.90;;;20.30;99.90;;;;;;5007979;28;20931;-76
2022/06/27 09:01:01;;;;;;;28.37;13.80;;;20.30;99.90;;;;;;4989807;28;20541;-76
2022/06/27 09:03:27;;;;;;;23.27;11.10;;;20.50;99.90;;;;;;5019570;28;20911;-76
2022/06/27 09:05:59;;;;;;;18.73;12.60;;;20.70;99.90;;;;;;5018947;28;20532;-76
2022/06/27 09:08:31;;;;;;;13.07;11.10;;;20.80;99.90;;;;;;5027189;28;20667;-76
2022/06/27 09:10:57;;;;;;;13.00;11.23;;;20.90;99.90;;;;;;5013062;28;20575;-75
2022/06/27 09:13:25;;;;;;;14.00;11.53;;;21.10;99.90;;;;;;5017352;28;20752;-76
2022/06/27 09:15:55;;;;;;;17.33;11.20;;;21.20;99.90;;;;;;5025866;28;20474;-76
2022/06/27 09:18:25;;;;;;;15.07;11.70;;;21.30;99.90;;;;;;5018168;28;20938;-76
2022/06/27 09:21:01;;;;;;;20.23;12.00;;;21.10;99.90;;;;;;5008255;28;20500;-76
2022/06/27 09:23:47;;;;;;;11.80;10.43;;;20.90;99.90;;;;;;5017138;28;20939;-75
2022/06/27 09:26:28;;;;;;;12.80;11.50;;;21.00;99.90;;;;;;4995844;28;20452;-75
2022/06/27 09:28:56;;;;;;;15.07;11.10;;;20.90;99.90;;;;;;5021994;28;20428;-76
2022/06/27 09:31:28;;;;;;;13.30;11.20;;;20.80;99.90;;;;;;5021200;28;20943;-76
2022/06/27 09:34:00;;;;;;;16.00;10.70;;;20.90;99.90;;;;;;4996952;28;20475;-76
2022/06/27 09:36:29;;;;;;;13.83;11.33;;;20.80;99.90;;;;;;5008817;28;20441;-75
2022/06/27 09:38:56;;;;;;;15.20;12.13;;;20.90;99.90;;;;;;5009813;28;20443;-76
2022/06/27 09:41:24;;;;;;;15.33;12.37;;;20.80;99.90;;;;;;5008960;28;20879;-75
2022/06/27 09:43:50;;;;;;;15.30;11.47;;;20.80;99.90;;;;;;4994576;28;20784;-76
2022/06/27 09:46:17;;;;;;;13.47;11.33;;;20.70;99.90;;;;;;5009801;28;20762;-75
2022/06/27 09:48:44;;;;;;;12.73;11.43;;;20.90;99.90;;;;;;4994693;28;20441;-75
2022/06/27 09:51:16;;;;;;;20.10;13.47;;;21.00;99.90;;;;;;5003576;28;20578;-76
2022/06/27 09:53:47;;;;;;;14.47;12.93;;;21.20;99.90;;;;;;5015076;28;20425;-76
2022/06/27 09:56:14;;;;;;;13.43;12.03;;;21.30;99.90;;;;;;5017822;28;20437;-76
2022/06/27 09:58:41;;;;;;;16.53;10.90;;;21.60;99.90;;;;;;5028008;28;20415;-75
2022/06/27 10:01:08;;;;;;;13.00;11.60;;;21.90;99.90;;;;;;5010990;28;20456;-76
2022/06/27 10:03:35;;;;;;;15.63;11.43;;;22.20;99.90;;;;;;5027357;28;20420;-76
2022/06/27 10:06:01;;;;;;;14.53;13.03;;;22.50;99.90;;;;;;4994516;28;20409;-76
2022/06/27 10:08:27;;;;;;;14.90;11.87;;;22.60;99.90;;;;;;5018988;28;20424;-75
2022/06/27 10:11:08;;;;;;;12.27;11.07;;;22.60;99.90;;;;;;4989912;28;20969;-76
2022/06/27 10:13:42;;;;;;;12.43;10.13;;;23.70;99.90;;;;;;5017418;28;20420;-75
2022/06/27 10:16:10;;;;;;;12.17;10.50;;;24.00;99.90;;;;;;4984613;28;20432;-75
2022/06/27 10:18:59;;;;;;;13.80;9.90;;;23.90;99.90;;;;;;4994107;28;20482;-75
2022/06/27 10:21:27;;;;;;;9.60;8.70;;;23.90;99.90;;;;;;4995428;28;20560;-76
2022/06/27 10:24:21;;;;;;;11.20;8.40;;;24.50;99.90;;;;;;5016809;28;20459;-76
2022/06/27 10:26:49;;;;;;;10.03;7.37;;;24.80;99.90;;;;;;4998392;28;20437;-75
2022/06/27 10:29:29;;;;;;;9.07;7.70;;;24.50;99.90;;;;;;5012825;28;20417;-76
2022/06/27 10:31:56;;;;;;;7.13;6.43;;;24.20;99.90;;;;;;5018440;28;20528;-76
2022/06/27 10:34:40;;;;;;;8.17;7.20;;;24.30;96.90;;;;;;5027713;28;20539;-75
2022/06/27 10:37:34;;;;;;;9.67;7.00;;;24.00;99.90;;;;;;5002790;28;20500;-75
2022/06/27 10:40:18;;;;;;;9.47;6.87;;;24.00;99.90;;;;;;5008110;28;20863;-76
2022/06/27 10:42:50;;;;;;;7.50;5.93;;;24.50;97.40;;;;;;4990606;28;20969;-76
2022/06/27 10:45:27;;;;;;;7.43;6.60;;;24.50;84.40;;;;;;5001730;28;20444;-76
2022/06/27 10:47:53;;;;;;;7.20;5.80;;;24.30;88.30;;;;;;4994029;28;20957;-76
2022/06/27 10:50:20;;;;;;;11.67;6.23;;;24.20;61.40;;;;;;5021365;28;20463;-76
2022/06/27 10:52:47;;;;;;;7.40;5.80;;;24.00;81.40;;;;;;5005740;28;20727;-76
2022/06/27 10:55:24;;;;;;;6.60;5.90;;;24.60;77.20;;;;;;5002644;28;20534;-75
2022/06/27 10:57:51;;;;;;;6.07;5.17;;;25.90;51.10;;;;;;5007777;28;20472;-76
2022/06/27 11:00:37;;;;;;;7.23;5.60;;;26.40;38.10;;;;;;4995096;28;20827;-76
2022/06/27 11:03:03;;;;;;;6.50;5.67;;;26.60;29.90;;;;;;5007583;28;20913;-76
2022/06/27 11:05:29;;;;;;;7.20;5.63;;;26.40;30.00;;;;;;4991435;28;20456;-76
2022/06/27 11:07:55;;;;;;;9.50;6.30;;;26.10;27.40;;;;;;5006649;28;20456;-76
2022/06/27 11:10:22;;;;;;;6.80;6.10;;;25.40;35.40;;;;;;5015460;28;20881;-76
2022/06/27 11:12:47;;;;;;;6.90;6.20;;;25.00;35.30;;;;;;5024540;28;20428;-76
2022/06/27 11:15:13;;;;;;;10.03;6.70;;;24.60;48.20;;;;;;5010612;28;20510;-76
2022/06/27 11:17:42;;;;;;;8.20;6.73;;;24.60;50.20;;;;;;5024932;28;20498;-76
2022/06/27 11:20:17;;;;;;;6.97;6.27;;;24.40;50.10;;;;;;5006102;28;20202;-76
2022/06/27 11:22:48;;;;;;;7.13;6.20;;;24.20;49.90;;;;;;5021429;28;20506;-76
2022/06/27 11:25:14;;;;;;;8.83;6.20;;;23.70;49.50;;;;;;5016648;28;20518;-75
2022/06/27 11:31:57;;;;;;;10.60;6.40;;;23.40;49.30;;;;;;4990411;28;20437;-75
2022/06/27 11:33:35;;;;;;;9.20;8.00;;;22.50;94.00;;;;;;5001539;28;20929;-75
2022/06/27 11:36:02;;;;;;;9.40;8.40;;;22.10;99.90;;;;;;5020276;28;20579;-76
2022/06/27 11:38:45;;;;;;;10.10;7.90;;;22.00;99.90;;;;;;5012478;28;20437;-76
2022/06/27 11:41:13;;;;;;;14.13;10.17;;;21.80;99.90;;;;;;5017725;28;20568;-76
2022/06/27 11:44:07;;;;;;;9.73;8.67;;;21.70;99.90;;;;;;5010240;28;20488;-75
2022/06/27 11:46:36;;;;;;;11.03;8.50;;;21.80;99.90;;;;;;5006265;28;20421;-75
2022/06/27 11:49:07;;;;;;;14.90;10.27;;;22.00;99.90;;;;;;4994643;28;20428;-76
2022/06/27 11:51:42;;;;;;;12.20;8.97;;;22.40;99.90;;;;;;5017360;28;20409;-76
2022/06/27 11:54:12;;;;;;;11.73;9.13;;;22.80;99.90;;;;;;5012370;28;20443;-76
2022/06/27 11:56:41;;;;;;;12.47;8.80;;;23.00;99.90;;;;;;5011191;28;20452;-76
2022/06/27 11:59:09;;;;;;;12.70;9.00;;;23.60;99.90;;;;;;5013858;28;20781;-75
2022/06/27 12:01:58;;;;;;;10.33;8.13;;;24.40;97.30;;;;;;5007515;28;20464;-76
2022/06/27 12:04:24;;;;;;;10.93;9.27;;;25.80;81.50;;;;;;5020262;28;20523;-76
2022/06/27 12:06:55;;;;;;;11.27;8.93;;;27.70;52.20;;;;;;5014347;28;20796;-76
2022/06/27 12:09:23;;;;;;;8.90;7.10;;;28.30;24.60;;;;;;5016534;28;20186;-76
2022/06/27 12:11:58;;;;;;;6.93;5.83;;;27.70;14.40;;;;;;5005760;28;20441;-76
2022/06/27 12:14:24;;;;;;;7.23;5.97;;;26.80;4.70;;;;;;5012679;28;20534;-76
2022/06/27 12:16:54;;;;;;;8.83;7.40;;;26.10;16.40;;;;;;5016285;28;20478;-76
2022/06/27 12:19:20;;;;;;;10.83;7.57;;;25.70;51.00;;;;;;4995737;28;20464;-75
2022/06/27 12:21:46;;;;;;;10.03;7.43;;;25.20;50.70;;;;;;5016423;28;20478;-77
2022/06/27 12:24:12;;;;;;;8.80;6.60;;;24.80;40.90;;;;;;5017701;28;20193;-76
2022/06/27 12:26:38;;;;;;;9.83;6.33;;;24.60;50.50;;;;;;5003603;28;20516;-75
2022/06/27 12:29:05;;;;;;;6.50;5.23;;;24.70;50.30;;;;;;5007649;28;20524;-76
2022/06/27 12:31:35;;;;;;;7.17;5.50;;;26.10;21.30;;;;;;5005756;28;20281;-75
2022/06/27 12:34:01;;;;;;;5.77;5.20;;;27.70;16.00;;;;;;4995268;28;20459;-76
2022/06/27 12:36:29;;;;;;;6.10;5.17;;;29.10;3.80;;;;;;5011064;28;20830;-77
2022/06/27 12:38:54;;;;;;;5.10;4.60;;;29.60;1.00;;;;;;5009313;28;20503;-76
2022/06/27 12:41:20;;;;;;;7.87;4.80;;;29.60;1.00;;;;;;5018676;28;21044;-75
2022/06/27 12:43:46;;;;;;;5.80;5.20;;;29.50;1.00;;;;;;5012832;28;20264;-76
2022/06/27 12:46:14;;;;;;;6.15;4.50;;;29.80;1.00;;;;;;5005914;28;20425;-76